createdAt,value
2017-12-20T00:01:41.121Z,4.50
2017-12-20T00:04:10.374Z,4.60
2017-12-20T00:06:39.694Z,4.60
2017-12-20T00:09:09.737Z,4.60
2017-12-20T00:11:39.020Z,4.60
2017-12-20T00:14:08.263Z,4.60
2017-12-20T00:16:37.512Z,4.60
2017-12-20T00:19:07.538Z,4.60
2017-12-20T00:21:36.787Z,4.60
2017-12-20T00:24:06.055Z,4.60
2017-12-20T00:26:35.325Z,4.60
2017-12-20T00:29:05.339Z,4.60
2017-12-20T00:31:35.381Z,4.60
2017-12-20T00:34:04.326Z,4.60
2017-12-20T00:36:33.274Z,4.60
2017-12-20T00:39:02.216Z,4.60
2017-12-20T00:41:31.164Z,4.60
2017-12-20T00:44:01.215Z,4.60
2017-12-20T00:46:30.467Z,4.60
2017-12-20T00:48:59.721Z,4.70
2017-12-20T00:51:28.993Z,4.70
2017-12-20T00:53:58.289Z,4.70
2017-12-20T00:56:27.565Z,4.70
2017-12-20T00:58:56.820Z,4.70
2017-12-20T01:01:26.091Z,4.70
2017-12-20T01:03:55.357Z,4.70
2017-12-20T01:06:24.625Z,4.70
2017-12-20T01:08:53.879Z,4.70
2017-12-20T01:11:23.145Z,4.80
2017-12-20T01:13:52.413Z,4.80
2017-12-20T01:16:21.694Z,4.80
2017-12-20T01:18:50.962Z,4.80
2017-12-20T01:21:20.205Z,4.90
2017-12-20T01:23:49.647Z,4.80
2017-12-20T01:26:19.674Z,4.80
2017-12-20T01:28:48.932Z,4.80
2017-12-20T01:31:18.198Z,4.90
2017-12-20T01:33:47.462Z,4.80
2017-12-20T01:36:17.461Z,4.80
2017-12-20T01:38:47.488Z,4.80
2017-12-20T01:41:17.499Z,4.80
2017-12-20T01:43:47.547Z,4.80
2017-12-20T01:46:16.798Z,4.70
2017-12-20T01:48:46.057Z,4.80
2017-12-20T01:51:15.300Z,4.70
2017-12-20T01:53:44.543Z,4.70
2017-12-20T01:56:13.812Z,4.70
2017-12-20T01:58:43.826Z,4.70
2017-12-20T02:01:13.844Z,4.70
2017-12-20T02:03:43.855Z,4.70
2017-12-20T02:06:13.901Z,4.70
2017-12-20T02:08:43.161Z,4.70
2017-12-20T02:11:12.445Z,4.70
2017-12-20T02:13:41.715Z,4.70
2017-12-20T02:16:10.966Z,4.70
2017-12-20T02:18:40.261Z,4.70
2017-12-20T02:21:09.509Z,4.70
2017-12-20T02:23:38.764Z,4.70
2017-12-20T02:26:08.052Z,4.70
2017-12-20T02:28:37.284Z,4.70
2017-12-20T02:31:07.317Z,4.80
2017-12-20T02:33:36.586Z,4.80
2017-12-20T02:36:05.855Z,4.80
2017-12-20T02:38:38.394Z,4.80
2017-12-20T02:41:09.421Z,4.70
2017-12-20T02:43:40.291Z,4.80
2017-12-20T02:46:09.585Z,4.70
2017-12-20T02:48:38.889Z,4.70
2017-12-20T02:51:08.186Z,4.80
2017-12-20T02:53:37.448Z,4.80
2017-12-20T02:56:07.471Z,4.90
2017-12-20T02:58:37.501Z,4.90
2017-12-20T03:01:06.767Z,4.90
2017-12-20T03:03:36.081Z,4.90
2017-12-20T03:06:05.338Z,4.90
2017-12-20T03:08:34.581Z,5.00
2017-12-20T03:11:04.619Z,5.00
2017-12-20T03:13:33.873Z,5.00
2017-12-20T03:16:03.119Z,5.00
2017-12-20T03:18:32.391Z,5.00
2017-12-20T03:21:01.650Z,5.10
2017-12-20T03:23:30.910Z,5.10
2017-12-20T03:26:00.182Z,5.10
2017-12-20T03:28:29.451Z,5.10
2017-12-20T03:30:58.715Z,5.00
2017-12-20T03:33:27.964Z,5.10
2017-12-20T03:35:57.232Z,5.10
2017-12-20T03:38:26.482Z,5.10
2017-12-20T03:40:55.716Z,5.10
2017-12-20T03:43:25.749Z,5.00
2017-12-20T03:45:54.991Z,5.00
2017-12-20T03:48:24.248Z,5.00
2017-12-20T03:50:54.274Z,5.10
2017-12-20T03:53:23.524Z,5.00
2017-12-20T03:55:53.570Z,5.10
2017-12-20T03:58:22.824Z,5.10
2017-12-20T04:00:52.086Z,5.10
2017-12-20T04:03:21.338Z,5.10
2017-12-20T04:05:51.364Z,5.10
2017-12-20T04:08:21.424Z,5.10
2017-12-20T04:10:50.663Z,5.10
2017-12-20T04:13:20.689Z,5.10
2017-12-20T04:15:50.712Z,5.00
2017-12-20T04:18:21.573Z,5.00
2017-12-20T04:20:50.824Z,5.00
2017-12-20T04:23:20.113Z,5.00
2017-12-20T04:25:49.396Z,5.10
2017-12-20T04:28:18.654Z,5.10
2017-12-20T04:30:47.918Z,5.10
2017-12-20T04:33:17.167Z,5.10
2017-12-20T04:35:46.423Z,5.10
2017-12-20T04:38:15.671Z,5.10
2017-12-20T04:40:44.933Z,5.10
2017-12-20T04:43:14.977Z,5.10
2017-12-20T04:45:44.243Z,5.10
2017-12-20T04:48:14.288Z,5.10
2017-12-20T04:50:43.543Z,5.00
2017-12-20T04:53:12.804Z,5.00
2017-12-20T04:55:42.066Z,5.00
2017-12-20T04:58:12.119Z,5.00
2017-12-20T05:00:41.385Z,5.00
2017-12-20T05:03:11.408Z,5.00
2017-12-20T05:05:40.672Z,5.00
2017-12-20T05:08:09.929Z,5.00
2017-12-20T05:10:39.193Z,5.00
2017-12-20T05:13:08.449Z,4.90
2017-12-20T05:15:37.701Z,4.80
2017-12-20T05:18:07.732Z,4.80
2017-12-20T05:20:37.011Z,4.80
2017-12-20T05:23:06.265Z,4.70
2017-12-20T05:25:35.518Z,4.80
2017-12-20T05:28:05.544Z,4.70
2017-12-20T05:30:34.809Z,4.70
2017-12-20T05:33:04.059Z,4.70
2017-12-20T05:35:33.324Z,4.70
2017-12-20T05:38:03.353Z,4.70
2017-12-20T05:40:33.381Z,4.80
2017-12-20T05:43:02.642Z,4.70
2017-12-20T05:45:31.914Z,4.70
2017-12-20T05:48:01.168Z,4.70
2017-12-20T05:50:30.424Z,4.70
2017-12-20T05:52:59.674Z,4.80
2017-12-20T05:55:28.937Z,4.80
2017-12-20T05:57:58.194Z,4.80
2017-12-20T06:00:27.442Z,4.80
2017-12-20T06:02:56.708Z,4.70
2017-12-20T06:05:25.958Z,4.70
2017-12-20T06:07:56.026Z,4.70
2017-12-20T06:10:25.291Z,4.70
2017-12-20T06:12:55.316Z,4.80
2017-12-20T06:15:24.569Z,4.80
2017-12-20T06:17:53.818Z,4.80
2017-12-20T06:20:23.116Z,4.80
2017-12-20T06:22:52.441Z,4.80
2017-12-20T06:25:22.409Z,4.90
2017-12-20T06:27:51.671Z,4.90
2017-12-20T06:30:20.917Z,4.90
2017-12-20T06:32:50.189Z,4.90
2017-12-20T06:35:19.450Z,5.00
2017-12-20T06:37:48.692Z,5.00
2017-12-20T06:40:17.961Z,5.10
2017-12-20T06:42:47.216Z,5.10
2017-12-20T06:45:16.480Z,5.10
2017-12-20T06:47:45.728Z,5.00
2017-12-20T06:50:15.017Z,5.00
2017-12-20T06:52:44.262Z,5.10
2017-12-20T06:55:13.500Z,5.30
2017-12-20T06:57:42.789Z,5.50
2017-12-20T07:00:12.813Z,5.60
2017-12-20T07:02:42.820Z,5.70
2017-12-20T07:05:13.069Z,5.70
2017-12-20T07:07:42.304Z,5.70
2017-12-20T07:10:11.555Z,5.80
2017-12-20T07:12:40.848Z,5.80
2017-12-20T07:15:10.942Z,5.80
2017-12-20T07:17:40.217Z,5.80
2017-12-20T07:20:09.454Z,5.80
2017-12-20T07:22:38.725Z,5.80
2017-12-20T07:25:07.978Z,5.80
2017-12-20T07:27:37.228Z,5.70
2017-12-20T07:30:06.543Z,5.70
2017-12-20T07:32:35.851Z,5.70
2017-12-20T07:35:05.099Z,5.60
2017-12-20T07:37:34.380Z,5.60
2017-12-20T07:40:04.384Z,5.50
2017-12-20T07:42:34.420Z,5.50
2017-12-20T07:45:03.894Z,5.50
2017-12-20T07:47:33.905Z,5.50
2017-12-20T07:50:03.173Z,5.40
2017-12-20T07:52:32.437Z,5.40
2017-12-20T07:55:01.694Z,5.40
2017-12-20T07:57:30.964Z,5.40
2017-12-20T08:00:00.215Z,5.40
2017-12-20T08:02:30.260Z,5.40
2017-12-20T08:04:59.519Z,5.40
2017-12-20T08:07:28.780Z,5.50
2017-12-20T08:09:58.040Z,5.50
2017-12-20T08:12:27.292Z,5.50
2017-12-20T08:14:56.557Z,5.60
2017-12-20T08:17:25.849Z,5.50
2017-12-20T08:19:55.102Z,5.50
2017-12-20T08:22:24.694Z,5.50
2017-12-20T08:24:54.054Z,5.40
2017-12-20T08:27:23.302Z,5.40
2017-12-20T08:29:52.582Z,5.40
2017-12-20T08:32:22.671Z,5.40
2017-12-20T08:34:51.966Z,5.40
2017-12-20T08:37:21.979Z,5.50
2017-12-20T08:39:52.036Z,5.60
2017-12-20T08:42:21.291Z,5.50
2017-12-20T08:44:51.312Z,5.60
2017-12-20T08:47:21.778Z,5.60
2017-12-20T08:49:51.015Z,5.60
2017-12-20T08:52:20.264Z,5.60
2017-12-20T08:54:49.531Z,5.60
2017-12-20T08:57:19.537Z,5.70
2017-12-20T08:59:48.796Z,5.70
2017-12-20T09:02:18.056Z,5.70
2017-12-20T09:04:47.317Z,5.70
2017-12-20T09:07:16.579Z,5.70
2017-12-20T09:09:45.882Z,5.70
2017-12-20T09:12:15.069Z,5.80
2017-12-20T09:14:44.310Z,5.70
2017-12-20T09:17:13.588Z,5.70
2017-12-20T09:19:42.838Z,5.70
2017-12-20T09:22:12.853Z,5.60
2017-12-20T09:24:42.092Z,5.60
2017-12-20T09:27:12.140Z,5.60
2017-12-20T09:29:41.440Z,5.60
2017-12-20T09:32:10.710Z,5.70
2017-12-20T09:34:39.953Z,5.80
2017-12-20T09:37:09.189Z,5.80
2017-12-20T09:39:38.442Z,5.90
2017-12-20T09:42:07.705Z,6.00
2017-12-20T09:44:36.962Z,6.10
2017-12-20T09:47:06.973Z,6.10
2017-12-20T09:49:36.993Z,6.20
2017-12-20T09:52:06.231Z,6.20
2017-12-20T09:54:35.482Z,6.20
2017-12-20T09:57:04.741Z,6.20
2017-12-20T09:59:33.988Z,6.20
2017-12-20T10:02:04.025Z,6.30
2017-12-20T10:04:34.025Z,6.30
2017-12-20T10:07:03.276Z,6.20
2017-12-20T10:09:32.511Z,6.30
2017-12-20T10:12:01.765Z,6.40
2017-12-20T10:14:31.025Z,6.30
2017-12-20T10:17:01.023Z,6.40
2017-12-20T10:19:30.281Z,6.40
2017-12-20T10:21:59.536Z,6.40
2017-12-20T10:24:29.547Z,6.40
2017-12-20T10:26:58.802Z,6.40
2017-12-20T10:29:28.058Z,6.40
2017-12-20T10:31:58.069Z,6.50
2017-12-20T10:34:28.098Z,6.50
2017-12-20T10:36:58.122Z,6.60
2017-12-20T10:39:28.123Z,6.50
2017-12-20T10:41:58.163Z,6.50
2017-12-20T10:44:28.154Z,6.50
2017-12-20T10:46:58.206Z,6.50
2017-12-20T10:49:27.440Z,6.50
2017-12-20T10:51:56.675Z,6.50
2017-12-20T10:54:26.077Z,6.40
2017-12-20T10:56:55.333Z,6.20
2017-12-20T10:59:24.618Z,6.20
2017-12-20T11:01:54.645Z,6.10
2017-12-20T11:04:23.892Z,6.10
2017-12-20T11:06:54.252Z,6.00
2017-12-20T11:09:23.616Z,6.00
2017-12-20T11:11:53.646Z,6.00
2017-12-20T11:14:22.904Z,6.00
2017-12-20T11:16:52.178Z,5.90
2017-12-20T11:19:21.423Z,5.90
2017-12-20T11:21:50.661Z,5.80
2017-12-20T11:24:19.928Z,5.80
2017-12-20T11:26:49.967Z,5.90
2017-12-20T11:29:19.240Z,5.90
2017-12-20T11:31:49.285Z,5.90
2017-12-20T11:34:18.580Z,5.90
2017-12-20T11:36:48.591Z,6.00
2017-12-20T11:39:18.626Z,6.00
2017-12-20T11:41:48.029Z,6.00
2017-12-20T11:44:18.846Z,5.90
2017-12-20T11:46:48.130Z,5.90
2017-12-20T11:49:17.425Z,5.90
2017-12-20T11:51:46.715Z,5.90
2017-12-20T11:54:15.979Z,5.90
2017-12-20T11:56:45.356Z,5.80
2017-12-20T11:59:14.846Z,5.90
2017-12-20T12:01:44.872Z,5.80
2017-12-20T12:04:14.911Z,5.80
2017-12-20T12:06:45.006Z,5.80
2017-12-20T12:09:15.131Z,5.80
2017-12-20T12:11:44.389Z,5.80
2017-12-20T12:14:13.639Z,5.70
2017-12-20T12:16:42.909Z,5.80
2017-12-20T12:19:12.182Z,5.90
2017-12-20T12:21:41.457Z,5.90
2017-12-20T12:24:11.679Z,5.90
2017-12-20T12:26:41.809Z,5.80
2017-12-20T12:29:11.066Z,5.90
2017-12-20T12:31:41.242Z,5.90
2017-12-20T12:34:10.717Z,5.90
2017-12-20T12:36:39.990Z,5.90
2017-12-20T12:39:09.256Z,5.90
2017-12-20T12:41:38.519Z,5.90
2017-12-20T12:44:07.781Z,5.90
2017-12-20T12:46:37.810Z,6.10
2017-12-20T12:49:07.068Z,6.00
2017-12-20T12:51:36.350Z,6.10
2017-12-20T12:54:05.611Z,6.10
2017-12-20T12:56:34.870Z,6.10
2017-12-20T12:59:04.122Z,6.10
2017-12-20T13:01:33.399Z,6.10
2017-12-20T13:04:02.665Z,6.10
2017-12-20T13:06:31.936Z,6.00
2017-12-20T13:09:01.204Z,6.00
2017-12-20T13:11:30.489Z,5.90
2017-12-20T13:14:00.538Z,5.90
2017-12-20T13:16:29.978Z,6.00
2017-12-20T13:18:59.241Z,5.90
2017-12-20T13:21:29.290Z,6.00
2017-12-20T13:23:58.533Z,6.00
2017-12-20T13:26:28.575Z,6.00
2017-12-20T13:28:57.840Z,6.00
2017-12-20T13:31:27.862Z,6.00
2017-12-20T13:33:57.886Z,6.10
2017-12-20T13:36:27.927Z,6.10
2017-12-20T13:38:57.186Z,6.10
2017-12-20T13:41:26.432Z,6.10
2017-12-20T13:43:55.689Z,6.10
2017-12-20T13:46:25.714Z,6.10
2017-12-20T13:48:55.749Z,6.10
2017-12-20T13:51:25.014Z,6.10
2017-12-20T13:53:55.054Z,6.30
2017-12-20T13:56:25.084Z,6.20
2017-12-20T13:58:54.328Z,6.20
2017-12-20T14:01:23.589Z,6.20
2017-12-20T14:03:52.882Z,6.20
2017-12-20T14:06:22.152Z,6.20
2017-12-20T14:08:51.419Z,6.20
2017-12-20T14:11:20.675Z,6.20
2017-12-20T14:13:49.949Z,6.20
2017-12-20T14:16:19.966Z,6.30
2017-12-20T14:18:50.004Z,6.30
2017-12-20T14:21:19.266Z,6.30
2017-12-20T14:23:48.540Z,6.30
2017-12-20T14:26:17.829Z,6.30
2017-12-20T14:28:47.271Z,6.40
2017-12-20T14:31:16.522Z,6.40
2017-12-20T14:33:45.813Z,6.30
2017-12-20T14:36:15.054Z,6.30
2017-12-20T14:38:44.343Z,6.20
2017-12-20T14:41:13.616Z,6.20
2017-12-20T14:43:42.881Z,6.10
2017-12-20T14:46:12.148Z,6.10
2017-12-20T14:48:41.536Z,6.10
2017-12-20T14:51:10.807Z,6.00
2017-12-20T14:53:41.228Z,6.00
2017-12-20T14:56:11.004Z,6.00
2017-12-20T14:58:40.329Z,6.00
2017-12-20T15:01:10.341Z,6.00
2017-12-20T15:03:39.613Z,6.00
2017-12-20T15:06:08.871Z,6.00
2017-12-20T15:08:38.150Z,6.10
2017-12-20T15:11:08.193Z,6.10
2017-12-20T15:13:37.466Z,6.10
2017-12-20T15:16:07.502Z,6.20
2017-12-20T15:18:36.778Z,6.20
2017-12-20T15:21:06.802Z,6.20
2017-12-20T15:23:36.828Z,6.20
2017-12-20T15:26:06.087Z,6.20
2017-12-20T15:28:35.372Z,6.20
2017-12-20T15:31:04.618Z,6.20
2017-12-20T15:33:34.652Z,6.20
2017-12-20T15:36:03.906Z,6.20
2017-12-20T15:38:33.219Z,6.30
2017-12-20T15:41:03.240Z,6.30
2017-12-20T15:43:32.514Z,6.30
2017-12-20T15:46:01.799Z,6.30
2017-12-20T15:48:31.067Z,6.40
2017-12-20T15:51:00.313Z,6.40
2017-12-20T15:53:29.591Z,6.40
2017-12-20T15:55:58.855Z,6.30
2017-12-20T15:58:28.141Z,6.40
2017-12-20T16:00:58.163Z,6.40
2017-12-20T16:03:28.192Z,6.50
2017-12-20T16:05:57.468Z,6.50
2017-12-20T16:08:27.491Z,6.50
2017-12-20T16:10:57.602Z,6.40
2017-12-20T16:13:26.948Z,6.40
2017-12-20T16:15:56.202Z,6.40
2017-12-20T16:18:25.451Z,6.40
2017-12-20T16:20:54.711Z,6.50
2017-12-20T16:23:24.014Z,6.60
2017-12-20T16:25:54.058Z,6.80
2017-12-20T16:28:23.325Z,6.70
2017-12-20T16:30:52.606Z,6.80
2017-12-20T16:33:21.864Z,6.80
2017-12-20T16:35:51.116Z,6.80
2017-12-20T16:38:21.169Z,6.80
2017-12-20T16:40:50.453Z,6.80
2017-12-20T16:43:20.469Z,6.70
2017-12-20T16:45:50.510Z,6.70
2017-12-20T16:48:19.811Z,6.70
2017-12-20T16:50:49.090Z,6.60
2017-12-20T16:53:36.057Z,6.60
2017-12-20T16:56:05.318Z,6.60
2017-12-20T16:58:34.590Z,6.60
2017-12-20T17:01:04.636Z,6.60
2017-12-20T17:03:33.957Z,6.60
2017-12-20T17:06:03.150Z,6.60
2017-12-20T17:08:32.419Z,6.60
2017-12-20T17:11:01.675Z,6.60
2017-12-20T17:13:30.936Z,6.60
2017-12-20T17:16:00.191Z,6.50
2017-12-20T17:18:29.449Z,6.50
2017-12-20T17:20:58.722Z,6.40
2017-12-20T17:23:27.955Z,6.40
2017-12-20T17:25:57.218Z,6.50
2017-12-20T17:28:26.496Z,6.50
2017-12-20T17:30:56.538Z,6.50
2017-12-20T17:33:25.789Z,6.40
2017-12-20T17:35:55.067Z,6.50
2017-12-20T17:38:24.322Z,6.50
2017-12-20T17:40:53.664Z,6.40
2017-12-20T17:43:22.863Z,6.40
2017-12-20T17:45:52.140Z,6.40
2017-12-20T17:48:21.429Z,6.40
2017-12-20T17:50:50.690Z,6.40
2017-12-20T17:53:19.973Z,6.40
2017-12-20T17:55:49.233Z,6.30
2017-12-20T17:58:18.486Z,6.30
2017-12-20T18:00:47.749Z,6.20
2017-12-20T18:03:17.026Z,6.10
2017-12-20T18:05:47.053Z,6.00
2017-12-20T18:08:16.906Z,6.00
2017-12-20T18:10:46.290Z,6.00
2017-12-20T18:13:15.588Z,6.10
2017-12-20T18:15:44.847Z,6.10
2017-12-20T18:18:14.123Z,6.10
2017-12-20T18:20:43.408Z,6.20
2017-12-20T18:23:12.683Z,6.40
2017-12-20T18:25:41.944Z,6.50
2017-12-20T18:28:11.975Z,6.70
2017-12-20T18:30:41.238Z,6.70
2017-12-20T18:33:10.494Z,6.70
2017-12-20T18:35:39.751Z,6.80
2017-12-20T18:38:09.789Z,6.90
2017-12-20T18:40:39.028Z,6.90
2017-12-20T18:43:08.320Z,7.00
2017-12-20T18:45:37.574Z,7.00
2017-12-20T18:48:06.835Z,7.00
2017-12-20T18:50:36.127Z,7.00
2017-12-20T18:53:05.413Z,7.10
2017-12-20T18:55:34.675Z,7.10
2017-12-20T18:58:04.701Z,7.10
2017-12-20T19:00:33.986Z,7.00
2017-12-20T19:03:04.014Z,7.00
2017-12-20T19:05:34.052Z,6.90
2017-12-20T19:08:03.326Z,6.90
2017-12-20T19:10:33.362Z,6.70
2017-12-20T19:13:02.656Z,6.70
2017-12-20T19:15:31.911Z,6.70
2017-12-20T19:18:01.175Z,6.70
2017-12-20T19:20:30.446Z,6.60
2017-12-20T19:23:00.505Z,6.60
2017-12-20T19:25:29.801Z,6.60
2017-12-20T19:27:59.097Z,6.60
2017-12-20T19:30:28.369Z,6.50
2017-12-20T19:32:57.643Z,6.60
2017-12-20T19:35:26.920Z,6.60
2017-12-20T19:37:56.213Z,6.60
2017-12-20T19:40:25.504Z,6.60
2017-12-20T19:42:54.790Z,6.60
2017-12-20T19:45:24.029Z,6.60
2017-12-20T19:47:53.290Z,6.60
2017-12-20T19:50:22.553Z,6.60
2017-12-20T19:52:52.621Z,6.60
2017-12-20T19:55:21.886Z,6.60
2017-12-20T19:57:51.151Z,6.60
2017-12-20T20:00:20.446Z,6.60
2017-12-20T20:02:49.702Z,6.60
2017-12-20T20:05:19.748Z,6.50
2017-12-20T20:07:49.011Z,6.50
2017-12-20T20:10:18.283Z,6.50
2017-12-20T20:12:48.320Z,6.50
2017-12-20T20:15:17.619Z,6.50
2017-12-20T20:17:46.893Z,6.50
2017-12-20T20:20:16.935Z,6.50
2017-12-20T20:22:46.203Z,6.50
2017-12-20T20:25:15.482Z,6.50
2017-12-20T20:27:45.247Z,6.50
2017-12-20T20:30:16.800Z,6.40
2017-12-20T20:32:46.071Z,6.40
2017-12-20T20:35:16.166Z,6.40
2017-12-20T20:37:45.416Z,6.40
2017-12-20T20:40:14.709Z,6.40
2017-12-20T20:42:44.739Z,6.30
2017-12-20T20:45:14.001Z,6.30
2017-12-20T20:47:43.268Z,6.40
2017-12-20T20:50:12.521Z,6.40
2017-12-20T20:52:43.804Z,6.40
2017-12-20T20:55:13.066Z,6.40
2017-12-20T20:57:43.104Z,6.40
2017-12-20T21:00:12.364Z,6.30
2017-12-20T21:02:41.601Z,6.40
2017-12-20T21:05:10.862Z,6.40
2017-12-20T21:07:40.141Z,6.40
2017-12-20T21:10:09.392Z,6.40
2017-12-20T21:12:38.671Z,6.40
2017-12-20T21:15:08.697Z,6.40
2017-12-20T21:17:38.735Z,6.30
2017-12-20T21:20:08.017Z,6.30
2017-12-20T21:22:38.055Z,6.40
2017-12-20T21:25:07.336Z,6.30
2017-12-20T21:27:36.613Z,6.40
2017-12-20T21:30:05.862Z,6.40
2017-12-20T21:32:35.121Z,6.40
2017-12-20T21:35:05.147Z,6.50
2017-12-20T21:37:35.207Z,6.50
2017-12-20T21:40:04.457Z,6.50
2017-12-20T21:42:34.498Z,6.50
2017-12-20T21:45:03.822Z,6.40
2017-12-20T21:47:33.102Z,6.40
2017-12-20T21:50:02.370Z,6.40
2017-12-20T21:52:32.406Z,6.40
2017-12-20T21:55:01.661Z,6.40
2017-12-20T21:57:30.983Z,6.50
2017-12-20T22:00:00.227Z,6.50
2017-12-20T22:02:29.498Z,6.50
2017-12-20T22:04:59.566Z,6.50
2017-12-20T22:07:28.840Z,6.50
2017-12-20T22:09:58.094Z,6.50
2017-12-20T22:12:27.369Z,6.50
2017-12-20T22:14:57.439Z,6.60
2017-12-20T22:17:27.519Z,6.50
2017-12-20T22:19:56.718Z,6.50
2017-12-20T22:22:25.964Z,6.50
2017-12-20T22:24:55.216Z,6.60
2017-12-20T22:27:24.498Z,6.60
2017-12-20T22:29:53.760Z,6.60
2017-12-20T22:32:23.030Z,6.50
2017-12-20T22:34:52.309Z,6.50
2017-12-20T22:37:21.559Z,6.40
2017-12-20T22:39:51.756Z,6.40
2017-12-20T22:42:21.774Z,6.50
2017-12-20T22:44:51.818Z,6.40
2017-12-20T22:47:21.086Z,6.40
2017-12-20T22:49:51.140Z,6.50
2017-12-20T22:52:20.389Z,6.50
2017-12-20T22:54:49.651Z,6.50
2017-12-20T22:57:19.523Z,6.50
2017-12-20T22:59:49.562Z,6.50
2017-12-20T23:02:18.838Z,6.50
2017-12-20T23:04:49.612Z,6.50
2017-12-20T23:07:18.891Z,6.50
2017-12-20T23:09:48.148Z,6.50
2017-12-20T23:12:17.389Z,6.50
2017-12-20T23:14:46.658Z,6.50
2017-12-20T23:17:15.942Z,6.50
2017-12-20T23:19:46.726Z,6.60
2017-12-20T23:22:15.976Z,6.50
2017-12-20T23:24:45.237Z,6.60
2017-12-20T23:27:14.510Z,6.60
2017-12-20T23:29:44.540Z,6.60
2017-12-20T23:32:13.807Z,6.60
2017-12-20T23:34:43.061Z,6.60
2017-12-20T23:37:12.308Z,6.50
2017-12-20T23:39:41.566Z,6.50
2017-12-20T23:42:11.648Z,6.40
2017-12-20T23:44:40.930Z,6.40
2017-12-20T23:47:10.970Z,6.50
2017-12-20T23:49:40.208Z,6.50
2017-12-20T23:52:09.461Z,6.50
2017-12-20T23:54:39.492Z,6.50
2017-12-20T23:57:09.360Z,6.50
2017-12-20T23:59:38.626Z,6.50
